sensor_id;sensor_type;location;lat;lon;timestamp;temperature;humidity
67354;SHT30;54238;52.278;21.056;2022-08-19T00:02:09;25.48;60.51
67354;SHT30;54238;52.278;21.056;2022-08-19T00:04:40;25.50;60.41
67354;SHT30;54238;52.278;21.056;2022-08-19T00:07:09;25.51;60.61
67354;SHT30;54238;52.278;21.056;2022-08-19T00:09:36;25.47;60.86
67354;SHT30;54238;52.278;21.056;2022-08-19T00:12:04;25.43;61.06
67354;SHT30;54238;52.278;21.056;2022-08-19T00:14:34;25.40;61.21
67354;SHT30;54238;52.278;21.056;2022-08-19T00:17:07;25.33;61.27
67354;SHT30;54238;52.278;21.056;2022-08-19T00:20:01;25.28;61.36
67354;SHT30;54238;52.278;21.056;2022-08-19T00:22:35;25.22;61.50
67354;SHT30;54238;52.278;21.056;2022-08-19T00:25:02;25.20;61.26
67354;SHT30;54238;52.278;21.056;2022-08-19T00:27:37;25.21;61.52
67354;SHT30;54238;52.278;21.056;2022-08-19T00:30:26;25.11;61.80
67354;SHT30;54238;52.278;21.056;2022-08-19T00:32:56;25.03;62.17
67354;SHT30;54238;52.278;21.056;2022-08-19T00:35:48;24.94;62.38
67354;SHT30;54238;52.278;21.056;2022-08-19T00:38:22;24.89;62.56
67354;SHT30;54238;52.278;21.056;2022-08-19T00:40:58;24.85;62.69
67354;SHT30;54238;52.278;21.056;2022-08-19T00:43:28;24.81;62.77
67354;SHT30;54238;52.278;21.056;2022-08-19T00:45:57;24.78;62.83
67354;SHT30;54238;52.278;21.056;2022-08-19T00:48:31;24.79;62.81
67354;SHT30;54238;52.278;21.056;2022-08-19T00:51:02;24.77;62.93
67354;SHT30;54238;52.278;21.056;2022-08-19T00:53:31;24.75;62.94
67354;SHT30;54238;52.278;21.056;2022-08-19T00:56:03;24.71;63.14
67354;SHT30;54238;52.278;21.056;2022-08-19T00:58:34;24.67;63.13
67354;SHT30;54238;52.278;21.056;2022-08-19T01:01:08;24.65;63.20
67354;SHT30;54238;52.278;21.056;2022-08-19T01:03:39;24.63;63.19
67354;SHT30;54238;52.278;21.056;2022-08-19T01:06:14;24.60;63.30
67354;SHT30;54238;52.278;21.056;2022-08-19T01:08:43;24.58;63.35
67354;SHT30;54238;52.278;21.056;2022-08-19T01:11:11;24.55;63.53
67354;SHT30;54238;52.278;21.056;2022-08-19T01:13:43;24.51;63.63
67354;SHT30;54238;52.278;21.056;2022-08-19T01:16:16;24.47;63.72
67354;SHT30;54238;52.278;21.056;2022-08-19T01:18:49;24.45;63.74
67354;SHT30;54238;52.278;21.056;2022-08-19T01:21:23;24.41;63.88
67354;SHT30;54238;52.278;21.056;2022-08-19T01:24:01;24.35;64.12
67354;SHT30;54238;52.278;21.056;2022-08-19T01:26:31;24.30;64.33
67354;SHT30;54238;52.278;21.056;2022-08-19T01:29:12;24.27;64.35
67354;SHT30;54238;52.278;21.056;2022-08-19T01:31:39;24.24;64.39
67354;SHT30;54238;52.278;21.056;2022-08-19T01:34:08;24.23;64.36
67354;SHT30;54238;52.278;21.056;2022-08-19T01:36:41;24.22;64.59
67354;SHT30;54238;52.278;21.056;2022-08-19T01:39:23;24.20;64.68
67354;SHT30;54238;52.278;21.056;2022-08-19T01:41:54;24.19;64.61
67354;SHT30;54238;52.278;21.056;2022-08-19T01:44:26;24.18;64.69
67354;SHT30;54238;52.278;21.056;2022-08-19T01:46:55;24.13;64.85
67354;SHT30;54238;52.278;21.056;2022-08-19T01:49:27;24.11;64.81
67354;SHT30;54238;52.278;21.056;2022-08-19T01:51:54;24.10;64.83
67354;SHT30;54238;52.278;21.056;2022-08-19T01:54:22;24.11;64.83
67354;SHT30;54238;52.278;21.056;2022-08-19T01:56:51;24.11;64.91
67354;SHT30;54238;52.278;21.056;2022-08-19T01:59:29;24.09;64.92
67354;SHT30;54238;52.278;21.056;2022-08-19T02:02:00;24.07;64.97
67354;SHT30;54238;52.278;21.056;2022-08-19T02:04:38;24.04;65.02
67354;SHT30;54238;52.278;21.056;2022-08-19T02:07:08;24.00;65.18
67354;SHT30;54238;52.278;21.056;2022-08-19T02:09:37;23.95;65.49
67354;SHT30;54238;52.278;21.056;2022-08-19T02:12:11;23.89;65.65
67354;SHT30;54238;52.278;21.056;2022-08-19T02:14:40;23.84;65.81
67354;SHT30;54238;52.278;21.056;2022-08-19T02:17:10;23.78;65.97
67354;SHT30;54238;52.278;21.056;2022-08-19T02:19:39;23.71;66.25
67354;SHT30;54238;52.278;21.056;2022-08-19T02:22:09;23.66;66.42
67354;SHT30;54238;52.278;21.056;2022-08-19T02:24:38;23.60;66.45
67354;SHT30;54238;52.278;21.056;2022-08-19T02:27:05;23.58;66.70
67354;SHT30;54238;52.278;21.056;2022-08-19T02:29:32;23.54;66.78
67354;SHT30;54238;52.278;21.056;2022-08-19T02:32:01;23.50;67.00
67354;SHT30;54238;52.278;21.056;2022-08-19T02:34:33;23.45;67.09
67354;SHT30;54238;52.278;21.056;2022-08-19T02:37:01;23.43;67.18
67354;SHT30;54238;52.278;21.056;2022-08-19T02:39:28;23.39;67.15
67354;SHT30;54238;52.278;21.056;2022-08-19T02:42:00;23.35;67.31
67354;SHT30;54238;52.278;21.056;2022-08-19T02:44:28;23.31;67.45
67354;SHT30;54238;52.278;21.056;2022-08-19T02:46:55;23.29;67.48
67354;SHT30;54238;52.278;21.056;2022-08-19T02:49:27;23.25;67.73
67354;SHT30;54238;52.278;21.056;2022-08-19T02:51:57;23.22;67.83
67354;SHT30;54238;52.278;21.056;2022-08-19T02:54:26;23.17;67.98
67354;SHT30;54238;52.278;21.056;2022-08-19T02:56:54;23.12;68.01
67354;SHT30;54238;52.278;21.056;2022-08-19T02:59:25;23.05;68.40
67354;SHT30;54238;52.278;21.056;2022-08-19T03:01:58;23.03;68.41
67354;SHT30;54238;52.278;21.056;2022-08-19T03:04:28;23.02;68.44
67354;SHT30;54238;52.278;21.056;2022-08-19T03:06:58;23.01;68.57
67354;SHT30;54238;52.278;21.056;2022-08-19T03:09:27;23.00;68.57
67354;SHT30;54238;52.278;21.056;2022-08-19T03:11:56;22.98;68.65
67354;SHT30;54238;52.278;21.056;2022-08-19T03:14:25;22.97;68.82
67354;SHT30;54238;52.278;21.056;2022-08-19T03:17:01;22.95;68.78
67354;SHT30;54238;52.278;21.056;2022-08-19T03:19:32;22.93;68.89
67354;SHT30;54238;52.278;21.056;2022-08-19T03:22:04;22.90;68.91
67354;SHT30;54238;52.278;21.056;2022-08-19T03:24:32;22.89;68.99
67354;SHT30;54238;52.278;21.056;2022-08-19T03:26:58;22.87;68.97
67354;SHT30;54238;52.278;21.056;2022-08-19T03:29:31;22.86;69.01
67354;SHT30;54238;52.278;21.056;2022-08-19T03:32:03;22.86;69.07
67354;SHT30;54238;52.278;21.056;2022-08-19T03:34:49;22.85;69.03
67354;SHT30;54238;52.278;21.056;2022-08-19T03:37:36;22.84;69.00
67354;SHT30;54238;52.278;21.056;2022-08-19T03:40:04;22.84;69.05
67354;SHT30;54238;52.278;21.056;2022-08-19T03:42:38;22.87;69.02
67354;SHT30;54238;52.278;21.056;2022-08-19T03:45:08;22.88;68.95
67354;SHT30;54238;52.278;21.056;2022-08-19T03:47:37;22.89;68.95
67354;SHT30;54238;52.278;21.056;2022-08-19T03:50:04;22.90;68.97
67354;SHT30;54238;52.278;21.056;2022-08-19T03:52:32;22.93;69.05
67354;SHT30;54238;52.278;21.056;2022-08-19T03:55:19;22.94;69.13
67354;SHT30;54238;52.278;21.056;2022-08-19T04:00:45;22.99;68.95
67354;SHT30;54238;52.278;21.056;2022-08-19T04:03:14;23.02;68.80
67354;SHT30;54238;52.278;21.056;2022-08-19T04:05:42;23.06;68.71
67354;SHT30;54238;52.278;21.056;2022-08-19T04:08:09;23.12;68.58
67354;SHT30;54238;52.278;21.056;2022-08-19T04:10:39;23.16;68.56
67354;SHT30;54238;52.278;21.056;2022-08-19T04:13:08;23.19;68.51
67354;SHT30;54238;52.278;21.056;2022-08-19T04:15:41;23.22;68.39
67354;SHT30;54238;52.278;21.056;2022-08-19T04:18:17;23.27;68.36
67354;SHT30;54238;52.278;21.056;2022-08-19T04:20:45;23.34;68.26
67354;SHT30;54238;52.278;21.056;2022-08-19T04:23:14;23.40;68.18
67354;SHT30;54238;52.278;21.056;2022-08-19T04:25:48;23.43;68.17
67354;SHT30;54238;52.278;21.056;2022-08-19T04:28:20;23.49;68.17
67354;SHT30;54238;52.278;21.056;2022-08-19T04:30:55;23.54;67.95
67354;SHT30;54238;52.278;21.056;2022-08-19T04:33:25;23.60;67.85
67354;SHT30;54238;52.278;21.056;2022-08-19T04:35:57;23.66;67.76
67354;SHT30;54238;52.278;21.056;2022-08-19T04:38:31;23.71;67.66
67354;SHT30;54238;52.278;21.056;2022-08-19T04:41:02;23.77;67.52
67354;SHT30;54238;52.278;21.056;2022-08-19T04:43:52;23.84;67.33
67354;SHT30;54238;52.278;21.056;2022-08-19T04:46:22;23.90;67.29
67354;SHT30;54238;52.278;21.056;2022-08-19T04:48:51;23.97;67.18
67354;SHT30;54238;52.278;21.056;2022-08-19T04:51:23;24.06;66.90
67354;SHT30;54238;52.278;21.056;2022-08-19T04:53:53;24.16;66.82
67354;SHT30;54238;52.278;21.056;2022-08-19T04:56:22;24.28;66.62
67354;SHT30;54238;52.278;21.056;2022-08-19T04:58:57;24.37;66.10
67354;SHT30;54238;52.278;21.056;2022-08-19T05:01:31;24.50;65.66
67354;SHT30;54238;52.278;21.056;2022-08-19T05:04:20;24.58;65.51
67354;SHT30;54238;52.278;21.056;2022-08-19T05:06:50;24.67;65.55
67354;SHT30;54238;52.278;21.056;2022-08-19T05:09:20;24.75;65.20
67354;SHT30;54238;52.278;21.056;2022-08-19T05:11:49;24.85;64.93
67354;SHT30;54238;52.278;21.056;2022-08-19T05:14:22;24.95;64.97
67354;SHT30;54238;52.278;21.056;2022-08-19T05:16:51;25.03;64.93
67354;SHT30;54238;52.278;21.056;2022-08-19T05:19:18;25.07;64.40
67354;SHT30;54238;52.278;21.056;2022-08-19T05:22:06;25.09;64.04
67354;SHT30;54238;52.278;21.056;2022-08-19T05:24:52;25.14;63.94
67354;SHT30;54238;52.278;21.056;2022-08-19T05:27:19;25.20;63.90
67354;SHT30;54238;52.278;21.056;2022-08-19T05:29:51;25.23;63.82
67354;SHT30;54238;52.278;21.056;2022-08-19T05:32:20;25.24;63.67
67354;SHT30;54238;52.278;21.056;2022-08-19T05:34:49;25.27;63.88
67354;SHT30;54238;52.278;21.056;2022-08-19T05:37:24;25.32;63.82
67354;SHT30;54238;52.278;21.056;2022-08-19T05:39:57;25.35;63.55
67354;SHT30;54238;52.278;21.056;2022-08-19T05:42:24;25.42;63.31
67354;SHT30;54238;52.278;21.056;2022-08-19T05:44:52;25.48;63.11
67354;SHT30;54238;52.278;21.056;2022-08-19T05:47:23;25.54;62.91
67354;SHT30;54238;52.278;21.056;2022-08-19T05:49:57;25.62;62.75
67354;SHT30;54238;52.278;21.056;2022-08-19T05:52:23;25.69;62.63
67354;SHT30;54238;52.278;21.056;2022-08-19T05:54:51;25.76;62.39
67354;SHT30;54238;52.278;21.056;2022-08-19T05:57:24;25.78;62.34
67354;SHT30;54238;52.278;21.056;2022-08-19T05:59:55;25.85;62.05
67354;SHT30;54238;52.278;21.056;2022-08-19T06:02:29;25.92;61.94
67354;SHT30;54238;52.278;21.056;2022-08-19T06:05:04;26.01;61.60
67354;SHT30;54238;52.278;21.056;2022-08-19T06:07:36;26.08;61.62
67354;SHT30;54238;52.278;21.056;2022-08-19T06:10:08;26.16;61.70
67354;SHT30;54238;52.278;21.056;2022-08-19T06:12:40;26.25;61.52
67354;SHT30;54238;52.278;21.056;2022-08-19T06:15:10;26.33;61.42
67354;SHT30;54238;52.278;21.056;2022-08-19T06:17:43;26.43;61.31
67354;SHT30;54238;52.278;21.056;2022-08-19T06:20:13;26.52;61.17
67354;SHT30;54238;52.278;21.056;2022-08-19T06:22:42;26.61;60.90
67354;SHT30;54238;52.278;21.056;2022-08-19T06:25:13;26.72;60.63
67354;SHT30;54238;52.278;21.056;2022-08-19T06:27:43;26.83;60.59
67354;SHT30;54238;52.278;21.056;2022-08-19T06:30:11;26.94;60.35
67354;SHT30;54238;52.278;21.056;2022-08-19T06:32:44;27.04;60.20
67354;SHT30;54238;52.278;21.056;2022-08-19T06:35:16;27.14;60.05
67354;SHT30;54238;52.278;21.056;2022-08-19T06:37:46;27.25;59.73
67354;SHT30;54238;52.278;21.056;2022-08-19T06:40:15;27.36;59.65
67354;SHT30;54238;52.278;21.056;2022-08-19T06:42:42;27.49;59.24
67354;SHT30;54238;52.278;21.056;2022-08-19T06:45:11;27.57;59.01
67354;SHT30;54238;52.278;21.056;2022-08-19T06:48:00;27.68;58.88
67354;SHT30;54238;52.278;21.056;2022-08-19T06:50:27;27.78;58.51
67354;SHT30;54238;52.278;21.056;2022-08-19T06:52:56;27.88;58.14
67354;SHT30;54238;52.278;21.056;2022-08-19T06:55:28;27.99;58.20
67354;SHT30;54238;52.278;21.056;2022-08-19T06:58:03;28.09;57.74
67354;SHT30;54238;52.278;21.056;2022-08-19T07:00:38;28.21;57.21
67354;SHT30;54238;52.278;21.056;2022-08-19T07:03:11;28.34;56.87
67354;SHT30;54238;52.278;21.056;2022-08-19T07:05:40;28.47;56.67
67354;SHT30;54238;52.278;21.056;2022-08-19T07:08:08;28.57;55.60
67354;SHT30;54238;52.278;21.056;2022-08-19T07:10:39;28.66;55.83
67354;SHT30;54238;52.278;21.056;2022-08-19T07:13:23;28.82;55.80
67354;SHT30;54238;52.278;21.056;2022-08-19T07:15:53;28.94;54.98
67354;SHT30;54238;52.278;21.056;2022-08-19T07:18:25;28.97;54.83
67354;SHT30;54238;52.278;21.056;2022-08-19T07:21:05;28.95;55.03
67354;SHT30;54238;52.278;21.056;2022-08-19T07:23:34;28.94;54.90
67354;SHT30;54238;52.278;21.056;2022-08-19T07:26:09;28.92;54.78
67354;SHT30;54238;52.278;21.056;2022-08-19T07:28:46;28.89;54.54
67354;SHT30;54238;52.278;21.056;2022-08-19T07:31:19;28.94;54.69
67354;SHT30;54238;52.278;21.056;2022-08-19T07:33:51;28.99;54.85
67354;SHT30;54238;52.278;21.056;2022-08-19T07:36:25;29.01;54.34
67354;SHT30;54238;52.278;21.056;2022-08-19T07:38:59;29.05;54.81
67354;SHT30;54238;52.278;21.056;2022-08-19T07:41:32;29.13;54.72
67354;SHT30;54238;52.278;21.056;2022-08-19T07:44:06;29.19;54.58
67354;SHT30;54238;52.278;21.056;2022-08-19T07:46:38;29.24;54.80
67354;SHT30;54238;52.278;21.056;2022-08-19T07:49:20;29.28;54.69
67354;SHT30;54238;52.278;21.056;2022-08-19T07:51:50;29.38;54.48
67354;SHT30;54238;52.278;21.056;2022-08-19T07:54:30;29.44;53.61
67354;SHT30;54238;52.278;21.056;2022-08-19T07:57:03;29.48;53.79
67354;SHT30;54238;52.278;21.056;2022-08-19T07:59:34;29.54;54.06
67354;SHT30;54238;52.278;21.056;2022-08-19T08:02:08;29.66;54.09
67354;SHT30;54238;52.278;21.056;2022-08-19T08:04:40;29.73;53.27
67354;SHT30;54238;52.278;21.056;2022-08-19T08:07:26;29.75;53.00
67354;SHT30;54238;52.278;21.056;2022-08-19T08:10:11;29.76;53.14
67354;SHT30;54238;52.278;21.056;2022-08-19T08:12:43;29.80;53.31
67354;SHT30;54238;52.278;21.056;2022-08-19T08:15:15;29.85;53.06
67354;SHT30;54238;52.278;21.056;2022-08-19T08:17:46;29.86;52.76
67354;SHT30;54238;52.278;21.056;2022-08-19T08:20:14;29.84;52.87
67354;SHT30;54238;52.278;21.056;2022-08-19T08:22:47;29.90;53.40
67354;SHT30;54238;52.278;21.056;2022-08-19T08:25:34;29.98;53.50
67354;SHT30;54238;52.278;21.056;2022-08-19T08:28:05;30.05;53.13
67354;SHT30;54238;52.278;21.056;2022-08-19T08:30:35;30.13;53.08
67354;SHT30;54238;52.278;21.056;2022-08-19T08:33:05;30.21;52.31
67354;SHT30;54238;52.278;21.056;2022-08-19T08:35:32;30.29;51.93
67354;SHT30;54238;52.278;21.056;2022-08-19T08:38:00;30.39;51.90
67354;SHT30;54238;52.278;21.056;2022-08-19T08:51:38;31.03;51.04
67354;SHT30;54238;52.278;21.056;2022-08-19T08:54:14;31.26;51.20
67354;SHT30;54238;52.278;21.056;2022-08-19T08:56:51;31.49;51.33
67354;SHT30;54238;52.278;21.056;2022-08-19T08:59:29;31.72;50.65
67354;SHT30;54238;52.278;21.056;2022-08-19T09:02:05;31.87;49.40
67354;SHT30;54238;52.278;21.056;2022-08-19T09:04:35;31.94;48.73
67354;SHT30;54238;52.278;21.056;2022-08-19T09:07:10;32.07;48.38
67354;SHT30;54238;52.278;21.056;2022-08-19T09:10:22;32.23;48.12
67354;SHT30;54238;52.278;21.056;2022-08-19T09:15:36;32.38;47.34
67354;SHT30;54238;52.278;21.056;2022-08-19T09:18:13;32.51;47.25
67354;SHT30;54238;52.278;21.056;2022-08-19T09:20:45;32.67;47.36
67354;SHT30;54238;52.278;21.056;2022-08-19T09:23:15;32.87;46.86
67354;SHT30;54238;52.278;21.056;2022-08-19T09:25:42;32.99;45.38
67354;SHT30;54238;52.278;21.056;2022-08-19T09:28:10;33.02;44.95
67354;SHT30;54238;52.278;21.056;2022-08-19T09:30:41;33.08;45.04
67354;SHT30;54238;52.278;21.056;2022-08-19T09:33:13;33.16;44.77
67354;SHT30;54238;52.278;21.056;2022-08-19T09:35:42;33.24;44.79
67354;SHT30;54238;52.278;21.056;2022-08-19T09:38:11;33.43;44.95
67354;SHT30;54238;52.278;21.056;2022-08-19T09:40:41;33.65;44.59
67354;SHT30;54238;52.278;21.056;2022-08-19T09:43:10;33.79;44.65
67354;SHT30;54238;52.278;21.056;2022-08-19T09:45:40;33.97;44.52
67354;SHT30;54238;52.278;21.056;2022-08-19T09:48:09;34.22;44.34
67354;SHT30;54238;52.278;21.056;2022-08-19T09:50:40;34.46;43.49
67354;SHT30;54238;52.278;21.056;2022-08-19T09:53:07;34.66;43.43
67354;SHT30;54238;52.278;21.056;2022-08-19T09:55:43;34.84;42.18
67354;SHT30;54238;52.278;21.056;2022-08-19T09:58:13;35.01;41.20
67354;SHT30;54238;52.278;21.056;2022-08-19T10:00:39;35.15;40.95
67354;SHT30;54238;52.278;21.056;2022-08-19T10:03:09;35.36;39.92
67354;SHT30;54238;52.278;21.056;2022-08-19T10:05:38;35.52;39.45
67354;SHT30;54238;52.278;21.056;2022-08-19T10:08:15;35.60;39.10
67354;SHT30;54238;52.278;21.056;2022-08-19T10:10:48;35.70;38.85
67354;SHT30;54238;52.278;21.056;2022-08-19T10:13:24;35.81;39.17
67354;SHT30;54238;52.278;21.056;2022-08-19T10:15:56;35.99;38.76
67354;SHT30;54238;52.278;21.056;2022-08-19T10:18:35;36.23;37.92
67354;SHT30;54238;52.278;21.056;2022-08-19T10:23:47;36.77;37.57
67354;SHT30;54238;52.278;21.056;2022-08-19T10:26:22;37.11;37.50
67354;SHT30;54238;52.278;21.056;2022-08-19T10:28:53;37.40;36.57
67354;SHT30;54238;52.278;21.056;2022-08-19T10:31:28;37.57;36.46
67354;SHT30;54238;52.278;21.056;2022-08-19T10:34:00;37.70;36.27
67354;SHT30;54238;52.278;21.056;2022-08-19T10:36:30;37.91;35.96
67354;SHT30;54238;52.278;21.056;2022-08-19T10:39:04;38.17;36.31
67354;SHT30;54238;52.278;21.056;2022-08-19T10:41:35;38.34;34.76
67354;SHT30;54238;52.278;21.056;2022-08-19T10:44:07;38.42;34.72
67354;SHT30;54238;52.278;21.056;2022-08-19T10:47:10;38.50;34.65
67354;SHT30;54238;52.278;21.056;2022-08-19T10:49:56;38.65;34.47
67354;SHT30;54238;52.278;21.056;2022-08-19T10:52:43;38.95;34.38
67354;SHT30;54238;52.278;21.056;2022-08-19T10:55:53;39.19;33.90
67354;SHT30;54238;52.278;21.056;2022-08-19T10:58:38;39.37;33.35
67354;SHT30;54238;52.278;21.056;2022-08-19T11:01:08;39.63;32.31
67354;SHT30;54238;52.278;21.056;2022-08-19T11:03:39;39.74;31.66
67354;SHT30;54238;52.278;21.056;2022-08-19T11:06:13;39.80;32.19
67354;SHT30;54238;52.278;21.056;2022-08-19T11:08:44;39.97;32.23
67354;SHT30;54238;52.278;21.056;2022-08-19T11:11:16;40.14;31.64
67354;SHT30;54238;52.278;21.056;2022-08-19T11:13:48;40.32;31.10
67354;SHT30;54238;52.278;21.056;2022-08-19T11:16:20;40.39;30.45
67354;SHT30;54238;52.278;21.056;2022-08-19T11:18:54;40.44;30.10
67354;SHT30;54238;52.278;21.056;2022-08-19T11:21:32;40.43;30.27
67354;SHT30;54238;52.278;21.056;2022-08-19T11:24:15;40.46;29.46
67354;SHT30;54238;52.278;21.056;2022-08-19T11:26:54;40.42;29.32
67354;SHT30;54238;52.278;21.056;2022-08-19T11:29:33;40.48;29.38
67354;SHT30;54238;52.278;21.056;2022-08-19T11:32:08;40.49;28.58
67354;SHT30;54238;52.278;21.056;2022-08-19T11:34:37;40.45;28.88
67354;SHT30;54238;52.278;21.056;2022-08-19T11:37:05;40.47;29.12
67354;SHT30;54238;52.278;21.056;2022-08-19T11:39:33;40.52;29.36
67354;SHT30;54238;52.278;21.056;2022-08-19T11:42:04;40.57;28.57
67354;SHT30;54238;52.278;21.056;2022-08-19T11:44:53;40.63;28.81
67354;SHT30;54238;52.278;21.056;2022-08-19T11:47:21;40.73;29.05
67354;SHT30;54238;52.278;21.056;2022-08-19T11:49:52;41.06;29.30
67354;SHT30;54238;52.278;21.056;2022-08-19T11:52:24;41.38;28.89
67354;SHT30;54238;52.278;21.056;2022-08-19T11:54:53;41.68;28.85
67354;SHT30;54238;52.278;21.056;2022-08-19T11:57:22;41.77;27.87
67354;SHT30;54238;52.278;21.056;2022-08-19T11:59:52;41.56;28.01
67354;SHT30;54238;52.278;21.056;2022-08-19T12:02:24;41.56;27.86
67354;SHT30;54238;52.278;21.056;2022-08-19T12:04:55;41.53;27.77
67354;SHT30;54238;52.278;21.056;2022-08-19T12:07:22;41.65;27.62
67354;SHT30;54238;52.278;21.056;2022-08-19T12:09:57;41.67;27.76
67354;SHT30;54238;52.278;21.056;2022-08-19T12:12:28;41.85;27.90
67354;SHT30;54238;52.278;21.056;2022-08-19T12:14:55;42.07;28.06
67354;SHT30;54238;52.278;21.056;2022-08-19T12:17:27;42.20;27.91
67354;SHT30;54238;52.278;21.056;2022-08-19T12:19:57;42.32;27.39
67354;SHT30;54238;52.278;21.056;2022-08-19T12:22:26;42.42;26.61
67354;SHT30;54238;52.278;21.056;2022-08-19T12:24:58;42.51;26.38
67354;SHT30;54238;52.278;21.056;2022-08-19T12:27:28;42.62;26.51
67354;SHT30;54238;52.278;21.056;2022-08-19T12:29:57;42.62;26.15
67354;SHT30;54238;52.278;21.056;2022-08-19T12:32:26;42.62;26.03
67354;SHT30;54238;52.278;21.056;2022-08-19T12:34:58;42.67;25.66
67354;SHT30;54238;52.278;21.056;2022-08-19T12:37:27;42.75;25.89
67354;SHT30;54238;52.278;21.056;2022-08-19T12:39:57;42.86;25.51
67354;SHT30;54238;52.278;21.056;2022-08-19T12:42:24;42.95;25.59
67354;SHT30;54238;52.278;21.056;2022-08-19T12:44:51;42.96;25.12
67354;SHT30;54238;52.278;21.056;2022-08-19T12:47:25;42.89;25.42
67354;SHT30;54238;52.278;21.056;2022-08-19T12:49:57;42.83;25.39
67354;SHT30;54238;52.278;21.056;2022-08-19T12:52:25;42.77;25.36
67354;SHT30;54238;52.278;21.056;2022-08-19T12:54:57;42.74;25.64
67354;SHT30;54238;52.278;21.056;2022-08-19T12:57:27;42.74;25.40
67354;SHT30;54238;52.278;21.056;2022-08-19T13:00:20;42.76;25.36
67354;SHT30;54238;52.278;21.056;2022-08-19T13:02:51;42.77;25.32
67354;SHT30;54238;52.278;21.056;2022-08-19T13:05:22;42.79;25.12
67354;SHT30;54238;52.278;21.056;2022-08-19T13:07:57;42.95;25.42
67354;SHT30;54238;52.278;21.056;2022-08-19T13:10:27;43.19;25.15
67354;SHT30;54238;52.278;21.056;2022-08-19T13:13:03;43.35;24.77
67354;SHT30;54238;52.278;21.056;2022-08-19T13:15:39;43.48;24.47
67354;SHT30;54238;52.278;21.056;2022-08-19T13:18:12;43.52;24.59
67354;SHT30;54238;52.278;21.056;2022-08-19T13:20:39;43.47;24.35
67354;SHT30;54238;52.278;21.056;2022-08-19T13:23:07;43.32;24.21
67354;SHT30;54238;52.278;21.056;2022-08-19T13:25:38;43.25;24.71
67354;SHT30;54238;52.278;21.056;2022-08-19T13:28:07;43.30;24.75
67354;SHT30;54238;52.278;21.056;2022-08-19T13:30:39;43.41;24.89
67354;SHT30;54238;52.278;21.056;2022-08-19T13:33:25;43.49;24.33
67354;SHT30;54238;52.278;21.056;2022-08-19T13:35:56;43.39;24.27
67354;SHT30;54238;52.278;21.056;2022-08-19T13:38:27;43.47;24.35
67354;SHT30;54238;52.278;21.056;2022-08-19T13:41:04;43.54;24.48
67354;SHT30;54238;52.278;21.056;2022-08-19T13:43:34;43.62;24.09
67354;SHT30;54238;52.278;21.056;2022-08-19T13:46:08;43.56;24.04
67354;SHT30;54238;52.278;21.056;2022-08-19T13:48:40;43.60;24.40
67354;SHT30;54238;52.278;21.056;2022-08-19T13:51:08;43.69;23.83
67354;SHT30;54238;52.278;21.056;2022-08-19T13:53:41;43.67;23.70
67354;SHT30;54238;52.278;21.056;2022-08-19T13:56:11;43.58;24.04
67354;SHT30;54238;52.278;21.056;2022-08-19T13:58:45;43.50;23.76
67354;SHT30;54238;52.278;21.056;2022-08-19T14:01:18;43.49;23.96
67354;SHT30;54238;52.278;21.056;2022-08-19T14:03:47;43.49;23.93
67354;SHT30;54238;52.278;21.056;2022-08-19T14:06:17;43.47;23.64
67354;SHT30;54238;52.278;21.056;2022-08-19T14:08:49;43.33;24.03
67354;SHT30;54238;52.278;21.056;2022-08-19T14:11:19;43.17;24.16
67354;SHT30;54238;52.278;21.056;2022-08-19T14:13:48;43.15;24.24
67354;SHT30;54238;52.278;21.056;2022-08-19T14:16:19;43.03;23.94
67354;SHT30;54238;52.278;21.056;2022-08-19T14:18:49;43.00;24.19
67354;SHT30;54238;52.278;21.056;2022-08-19T14:21:19;43.04;24.28
67354;SHT30;54238;52.278;21.056;2022-08-19T14:23:53;42.92;24.17
67354;SHT30;54238;52.278;21.056;2022-08-19T14:26:23;42.90;24.34
67354;SHT30;54238;52.278;21.056;2022-08-19T14:28:55;42.89;24.61
67354;SHT30;54238;52.278;21.056;2022-08-19T14:31:23;42.93;24.67
67354;SHT30;54238;52.278;21.056;2022-08-19T14:33:56;42.97;24.41
67354;SHT30;54238;52.278;21.056;2022-08-19T14:36:28;42.93;24.50
67354;SHT30;54238;52.278;21.056;2022-08-19T14:38:57;42.97;24.41
67354;SHT30;54238;52.278;21.056;2022-08-19T14:41:27;42.82;24.37
67354;SHT30;54238;52.278;21.056;2022-08-19T14:44:01;42.60;24.74
67354;SHT30;54238;52.278;21.056;2022-08-19T14:46:28;42.57;24.90
67354;SHT30;54238;52.278;21.056;2022-08-19T14:49:00;42.36;25.00
67354;SHT30;54238;52.278;21.056;2022-08-19T14:51:29;42.28;24.90
67354;SHT30;54238;52.278;21.056;2022-08-19T14:54:04;42.16;24.84
67354;SHT30;54238;52.278;21.056;2022-08-19T14:56:33;42.18;25.07
67354;SHT30;54238;52.278;21.056;2022-08-19T14:59:05;42.12;25.24
67354;SHT30;54238;52.278;21.056;2022-08-19T15:01:34;41.93;25.29
67354;SHT30;54238;52.278;21.056;2022-08-19T15:04:04;41.86;25.67
67354;SHT30;54238;52.278;21.056;2022-08-19T15:06:34;41.65;25.33
67354;SHT30;54238;52.278;21.056;2022-08-19T15:09:03;41.40;25.54
67354;SHT30;54238;52.278;21.056;2022-08-19T15:11:33;41.12;25.85
67354;SHT30;54238;52.278;21.056;2022-08-19T15:14:03;41.01;26.53
67354;SHT30;54238;52.278;21.056;2022-08-19T15:16:33;41.00;26.45
67354;SHT30;54238;52.278;21.056;2022-08-19T15:19:06;40.76;26.34
67354;SHT30;54238;52.278;21.056;2022-08-19T15:21:40;40.38;26.48
67354;SHT30;54238;52.278;21.056;2022-08-19T15:24:07;40.09;26.97
67354;SHT30;54238;52.278;21.056;2022-08-19T15:26:35;39.91;27.37
67354;SHT30;54238;52.278;21.056;2022-08-19T15:29:03;39.82;27.45
67354;SHT30;54238;52.278;21.056;2022-08-19T15:31:43;39.67;27.61
67354;SHT30;54238;52.278;21.056;2022-08-19T15:34:11;39.62;27.56
67354;SHT30;54238;52.278;21.056;2022-08-19T15:36:42;39.54;27.64
67354;SHT30;54238;52.278;21.056;2022-08-19T15:39:09;39.35;28.29
67354;SHT30;54238;52.278;21.056;2022-08-19T15:41:39;39.27;28.52
67354;SHT30;54238;52.278;21.056;2022-08-19T15:44:12;39.21;28.70
67354;SHT30;54238;52.278;21.056;2022-08-19T15:46:52;39.09;28.80
67354;SHT30;54238;52.278;21.056;2022-08-19T15:49:37;38.99;28.95
67354;SHT30;54238;52.278;21.056;2022-08-19T15:52:04;38.97;29.12
67354;SHT30;54238;52.278;21.056;2022-08-19T15:54:33;38.87;28.89
67354;SHT30;54238;52.278;21.056;2022-08-19T15:57:00;38.68;28.83
67354;SHT30;54238;52.278;21.056;2022-08-19T15:59:48;38.51;28.86
67354;SHT30;54238;52.278;21.056;2022-08-19T16:02:39;38.33;29.11
67354;SHT30;54238;52.278;21.056;2022-08-19T16:05:25;38.10;29.30
67354;SHT30;54238;52.278;21.056;2022-08-19T16:08:16;37.94;29.59